sensor_id;sensor_type;location;lat;lon;timestamp;pressure;altitude;pressure_sealevel;temperature;humidity
72157;BME280;60035;52.122;5.406;2023-03-01T00:01:30;103449.56;;;-1.37;80.75
72157;BME280;60035;52.122;5.406;2023-03-01T00:04:00;103446.16;;;-1.38;80.42
72157;BME280;60035;52.122;5.406;2023-03-01T00:06:27;103448.78;;;-1.36;80.53
72157;BME280;60035;52.122;5.406;2023-03-01T00:08:54;103446.06;;;-1.39;81.29
72157;BME280;60035;52.122;5.406;2023-03-01T00:13:49;103450.16;;;-1.41;81.72
72157;BME280;60035;52.122;5.406;2023-03-01T00:16:22;103454.69;;;-1.49;81.71
72157;BME280;60035;52.122;5.406;2023-03-01T00:18:49;103452.66;;;-1.55;82.28
72157;BME280;60035;52.122;5.406;2023-03-01T00:21:17;103446.75;;;-1.55;82.59
72157;BME280;60035;52.122;5.406;2023-03-01T00:23:46;103450.84;;;-1.57;82.80
72157;BME280;60035;52.122;5.406;2023-03-01T00:26:15;103444.16;;;-1.57;83.10
72157;BME280;60035;52.122;5.406;2023-03-01T00:28:42;103442.31;;;-1.59;83.04
72157;BME280;60035;52.122;5.406;2023-03-01T00:31:12;103438.72;;;-1.63;83.49
72157;BME280;60035;52.122;5.406;2023-03-01T00:33:40;103437.56;;;-1.68;83.24
72157;BME280;60035;52.122;5.406;2023-03-01T00:36:07;103428.91;;;-1.73;83.73
72157;BME280;60035;52.122;5.406;2023-03-01T00:38:35;103424.44;;;-1.77;83.73
72157;BME280;60035;52.122;5.406;2023-03-01T00:41:07;103434.09;;;-1.83;84.22
72157;BME280;60035;52.122;5.406;2023-03-01T00:43:36;103438.25;;;-1.84;84.08
72157;BME280;60035;52.122;5.406;2023-03-01T00:46:06;103436.53;;;-1.85;84.62
72157;BME280;60035;52.122;5.406;2023-03-01T00:48:34;103437.38;;;-1.85;84.78
72157;BME280;60035;52.122;5.406;2023-03-01T00:53:38;103435.06;;;-1.81;84.37
72157;BME280;60035;52.122;5.406;2023-03-01T00:56:07;103426.75;;;-1.80;84.46
72157;BME280;60035;52.122;5.406;2023-03-01T00:58:34;103427.81;;;-1.77;84.50
72157;BME280;60035;52.122;5.406;2023-03-01T01:01:12;103428.59;;;-1.78;84.02
72157;BME280;60035;52.122;5.406;2023-03-01T01:04:00;103422.63;;;-1.80;84.17
72157;BME280;60035;52.122;5.406;2023-03-01T01:06:30;103431.50;;;-1.85;84.16
72157;BME280;60035;52.122;5.406;2023-03-01T01:08:58;103427.91;;;-1.89;84.97
72157;BME280;60035;52.122;5.406;2023-03-01T01:11:27;103411.19;;;-1.88;84.74
72157;BME280;60035;52.122;5.406;2023-03-01T01:13:56;103413.44;;;-1.93;84.79
72157;BME280;60035;52.122;5.406;2023-03-01T01:16:25;103411.28;;;-2.00;84.97
72157;BME280;60035;52.122;5.406;2023-03-01T01:18:52;103406.75;;;-2.06;85.75
72157;BME280;60035;52.122;5.406;2023-03-01T01:21:21;103401.63;;;-2.07;86.19
72157;BME280;60035;52.122;5.406;2023-03-01T01:23:49;103398.44;;;-2.05;86.08
72157;BME280;60035;52.122;5.406;2023-03-01T01:26:23;103401.06;;;-2.03;86.22
72157;BME280;60035;52.122;5.406;2023-03-01T01:28:51;103400.75;;;-2.08;85.44
72157;BME280;60035;52.122;5.406;2023-03-01T01:31:18;103397.09;;;-2.13;85.73
72157;BME280;60035;52.122;5.406;2023-03-01T01:33:45;103388.50;;;-2.16;86.07
72157;BME280;60035;52.122;5.406;2023-03-01T01:36:11;103382.31;;;-2.22;85.91
72157;BME280;60035;52.122;5.406;2023-03-01T01:38:38;103385.56;;;-2.23;86.08
72157;BME280;60035;52.122;5.406;2023-03-01T01:41:06;103384.63;;;-2.25;85.91
72157;BME280;60035;52.122;5.406;2023-03-01T01:43:37;103393.88;;;-2.24;86.02
72157;BME280;60035;52.122;5.406;2023-03-01T01:49:04;103390.69;;;-2.21;86.11
72157;BME280;60035;52.122;5.406;2023-03-01T01:51:37;103385.28;;;-2.27;85.94
72157;BME280;60035;52.122;5.406;2023-03-01T01:54:14;103384.31;;;-2.29;86.21
72157;BME280;60035;52.122;5.406;2023-03-01T01:56:44;103384.31;;;-2.29;86.54
72157;BME280;60035;52.122;5.406;2023-03-01T01:59:13;103385.97;;;-2.30;86.04
72157;BME280;60035;52.122;5.406;2023-03-01T02:01:40;103378.78;;;-2.37;86.25
72157;BME280;60035;52.122;5.406;2023-03-01T02:04:12;103376.00;;;-2.42;86.48
72157;BME280;60035;52.122;5.406;2023-03-01T02:06:46;103377.75;;;-2.41;86.89
72157;BME280;60035;52.122;5.406;2023-03-01T02:09:15;103372.91;;;-2.38;87.40
72157;BME280;60035;52.122;5.406;2023-03-01T02:11:43;103371.06;;;-2.40;87.33
72157;BME280;60035;52.122;5.406;2023-03-01T02:14:10;103375.78;;;-2.45;87.01
72157;BME280;60035;52.122;5.406;2023-03-01T02:16:37;103372.13;;;-2.50;87.42
72157;BME280;60035;52.122;5.406;2023-03-01T02:19:04;103367.78;;;-2.53;87.88
72157;BME280;60035;52.122;5.406;2023-03-01T02:25:07;103369.91;;;-2.45;88.48
72157;BME280;60035;52.122;5.406;2023-03-01T02:27:10;103366.63;;;-2.44;87.99
72157;BME280;60035;52.122;5.406;2023-03-01T02:29:38;103367.22;;;-2.48;88.16
72157;BME280;60035;52.122;5.406;2023-03-01T02:32:04;103368.72;;;-2.51;88.43
72157;BME280;60035;52.122;5.406;2023-03-01T02:34:32;103362.94;;;-2.49;88.45
72157;BME280;60035;52.122;5.406;2023-03-01T02:37:04;103352.81;;;-2.51;88.73
72157;BME280;60035;52.122;5.406;2023-03-01T02:39:42;103350.50;;;-2.48;89.09
72157;BME280;60035;52.122;5.406;2023-03-01T02:42:13;103350.31;;;-2.51;89.12
72157;BME280;60035;52.122;5.406;2023-03-01T02:44:41;103346.72;;;-2.55;89.06
72157;BME280;60035;52.122;5.406;2023-03-01T02:47:07;103353.19;;;-2.58;89.40
72157;BME280;60035;52.122;5.406;2023-03-01T02:49:36;103350.56;;;-2.60;89.35
72157;BME280;60035;52.122;5.406;2023-03-01T02:52:23;103344.69;;;-2.60;89.31
72157;BME280;60035;52.122;5.406;2023-03-01T02:57:21;103338.50;;;-2.65;89.46
72157;BME280;60035;52.122;5.406;2023-03-01T02:59:50;103346.03;;;-2.65;89.59
72157;BME280;60035;52.122;5.406;2023-03-01T03:02:23;103340.78;;;-2.69;89.56
72157;BME280;60035;52.122;5.406;2023-03-01T03:05:13;103339.28;;;-2.66;89.48
72157;BME280;60035;52.122;5.406;2023-03-01T03:07:42;103330.09;;;-2.66;89.44
72157;BME280;60035;52.122;5.406;2023-03-01T03:10:12;103331.09;;;-2.64;88.87
72157;BME280;60035;52.122;5.406;2023-03-01T03:12:40;103325.31;;;-2.63;88.88
72157;BME280;60035;52.122;5.406;2023-03-01T03:15:09;103331.84;;;-2.65;88.87
72157;BME280;60035;52.122;5.406;2023-03-01T03:17:36;103333.41;;;-2.67;88.82
72157;BME280;60035;52.122;5.406;2023-03-01T03:20:04;103336.56;;;-2.70;88.43
72157;BME280;60035;52.122;5.406;2023-03-01T03:22:31;103328.72;;;-2.74;88.30
72157;BME280;60035;52.122;5.406;2023-03-01T03:25:00;103325.28;;;-2.76;88.67
72157;BME280;60035;52.122;5.406;2023-03-01T03:27:27;103319.28;;;-2.78;88.41
72157;BME280;60035;52.122;5.406;2023-03-01T03:29:53;103320.94;;;-2.79;88.57
72157;BME280;60035;52.122;5.406;2023-03-01T03:32:20;103314.06;;;-2.81;88.92
72157;BME280;60035;52.122;5.406;2023-03-01T03:34:48;103323.69;;;-2.88;88.90
72157;BME280;60035;52.122;5.406;2023-03-01T03:37:15;103331.09;;;-2.89;88.97
72157;BME280;60035;52.122;5.406;2023-03-01T03:40:00;103330.44;;;-2.87;89.30
72157;BME280;60035;52.122;5.406;2023-03-01T03:42:27;103327.84;;;-2.88;89.21
72157;BME280;60035;52.122;5.406;2023-03-01T03:44:53;103328.28;;;-2.94;89.02
72157;BME280;60035;52.122;5.406;2023-03-01T03:47:20;103331.25;;;-2.99;88.97
72157;BME280;60035;52.122;5.406;2023-03-01T03:49:46;103330.06;;;-3.05;89.14
72157;BME280;60035;52.122;5.406;2023-03-01T03:52:13;103325.44;;;-3.12;89.40
72157;BME280;60035;52.122;5.406;2023-03-01T03:54:40;103317.69;;;-3.15;89.44
72157;BME280;60035;52.122;5.406;2023-03-01T03:57:07;103311.63;;;-3.19;89.53
72157;BME280;60035;52.122;5.406;2023-03-01T03:59:33;103300.94;;;-3.16;89.59
72157;BME280;60035;52.122;5.406;2023-03-01T04:02:00;103311.63;;;-3.19;89.45
72157;BME280;60035;52.122;5.406;2023-03-01T04:04:27;103318.91;;;-3.22;89.46
72157;BME280;60035;52.122;5.406;2023-03-01T04:06:53;103318.81;;;-3.23;89.43
72157;BME280;60035;52.122;5.406;2023-03-01T04:09:20;103324.72;;;-3.23;89.42
72157;BME280;60035;52.122;5.406;2023-03-01T04:11:46;103317.72;;;-3.27;88.94
72157;BME280;60035;52.122;5.406;2023-03-01T04:14:13;103327.56;;;-3.30;88.91
72157;BME280;60035;52.122;5.406;2023-03-01T04:16:39;103327.56;;;-3.30;89.46
72157;BME280;60035;52.122;5.406;2023-03-01T04:19:06;103326.59;;;-3.32;90.00
72157;BME280;60035;52.122;5.406;2023-03-01T04:21:32;103318.09;;;-3.34;89.50
72157;BME280;60035;52.122;5.406;2023-03-01T04:23:59;103319.75;;;-3.35;90.04
72157;BME280;60035;52.122;5.406;2023-03-01T04:26:26;103320.69;;;-3.32;89.76
72157;BME280;60035;52.122;5.406;2023-03-01T04:28:53;103324.75;;;-3.35;90.07
72157;BME280;60035;52.122;5.406;2023-03-01T04:31:20;103328.97;;;-3.33;89.98
72157;BME280;60035;52.122;5.406;2023-03-01T04:33:52;103329.75;;;-3.35;90.23
72157;BME280;60035;52.122;5.406;2023-03-01T04:36:22;103327.25;;;-3.35;90.37
72157;BME280;60035;52.122;5.406;2023-03-01T04:38:50;103319.75;;;-3.35;89.95
72157;BME280;60035;52.122;5.406;2023-03-01T04:41:18;103320.84;;;-3.43;89.93
72157;BME280;60035;52.122;5.406;2023-03-01T04:43:45;103318.78;;;-3.48;89.86
72157;BME280;60035;52.122;5.406;2023-03-01T04:46:15;103319.66;;;-3.48;90.30
72157;BME280;60035;52.122;5.406;2023-03-01T04:48:43;103318.97;;;-3.45;90.02
72157;BME280;60035;52.122;5.406;2023-03-01T04:51:11;103308.66;;;-3.50;90.05
72157;BME280;60035;52.122;5.406;2023-03-01T04:53:41;103308.47;;;-3.53;89.62
72157;BME280;60035;52.122;5.406;2023-03-01T04:56:08;103304.31;;;-3.53;89.98
72157;BME280;60035;52.122;5.406;2023-03-01T04:58:35;103298.56;;;-3.52;90.01
72157;BME280;60035;52.122;5.406;2023-03-01T05:01:01;103300.28;;;-3.50;89.93
72157;BME280;60035;52.122;5.406;2023-03-01T05:03:49;103292.78;;;-3.50;89.52
72157;BME280;60035;52.122;5.406;2023-03-01T05:06:16;103287.78;;;-3.50;89.77
72157;BME280;60035;52.122;5.406;2023-03-01T05:08:43;103290.81;;;-3.55;89.43
72157;BME280;60035;52.122;5.406;2023-03-01T05:11:10;103278.94;;;-3.57;89.73
72157;BME280;60035;52.122;5.406;2023-03-01T05:13:38;103279.75;;;-3.58;89.33
72157;BME280;60035;52.122;5.406;2023-03-01T05:16:05;103287.34;;;-3.57;89.36
72157;BME280;60035;52.122;5.406;2023-03-01T05:18:33;103268.06;;;-3.58;89.28
72157;BME280;60035;52.122;5.406;2023-03-01T05:21:05;103270.38;;;-3.61;89.54
72157;BME280;60035;52.122;5.406;2023-03-01T05:23:34;103264.94;;;-3.67;89.06
72157;BME280;60035;52.122;5.406;2023-03-01T05:26:01;103263.56;;;-3.75;89.02
72157;BME280;60035;52.122;5.406;2023-03-01T05:28:28;103262.13;;;-3.72;89.72
72157;BME280;60035;52.122;5.406;2023-03-01T05:30:56;103256.34;;;-3.71;89.92
72157;BME280;60035;52.122;5.406;2023-03-01T05:33:24;103262.13;;;-3.72;89.73
72157;BME280;60035;52.122;5.406;2023-03-01T05:35:51;103252.88;;;-3.73;89.86
72157;BME280;60035;52.122;5.406;2023-03-01T05:38:20;103251.25;;;-3.72;89.92
72157;BME280;60035;52.122;5.406;2023-03-01T05:40:48;103250.28;;;-3.74;89.61
72157;BME280;60035;52.122;5.406;2023-03-01T05:43:16;103236.69;;;-3.78;89.60
72157;BME280;60035;52.122;5.406;2023-03-01T05:45:43;103229.72;;;-3.82;89.40
72157;BME280;60035;52.122;5.406;2023-03-01T05:48:11;103236.25;;;-3.84;90.18
72157;BME280;60035;52.122;5.406;2023-03-01T05:50:43;103237.13;;;-3.83;90.12
72157;BME280;60035;52.122;5.406;2023-03-01T05:53:16;103237.88;;;-3.85;89.47
72157;BME280;60035;52.122;5.406;2023-03-01T05:55:43;103241.16;;;-3.86;90.07
72157;BME280;60035;52.122;5.406;2023-03-01T05:58:19;103239.41;;;-3.87;89.79
72157;BME280;60035;52.122;5.406;2023-03-01T06:00:47;103235.50;;;-3.83;90.34
72157;BME280;60035;52.122;5.406;2023-03-01T06:03:15;103229.63;;;-3.83;90.15
72157;BME280;60035;52.122;5.406;2023-03-01T06:05:42;103223.72;;;-3.84;90.20
72157;BME280;60035;52.122;5.406;2023-03-01T06:08:10;103243.00;;;-3.83;89.77
72157;BME280;60035;52.122;5.406;2023-03-01T06:10:37;103235.28;;;-3.86;89.63
72157;BME280;60035;52.122;5.406;2023-03-01T06:13:04;103236.03;;;-3.87;89.72
72157;BME280;60035;52.122;5.406;2023-03-01T06:15:30;103232.34;;;-3.92;90.00
72157;BME280;60035;52.122;5.406;2023-03-01T06:18:00;103231.81;;;-4.00;90.14
72157;BME280;60035;52.122;5.406;2023-03-01T06:20:28;103246.19;;;-3.97;90.33
72157;BME280;60035;52.122;5.406;2023-03-01T06:22:55;103240.41;;;-3.96;89.63
72157;BME280;60035;52.122;5.406;2023-03-01T06:25:23;103243.69;;;-3.97;89.80
72157;BME280;60035;52.122;5.406;2023-03-01T06:27:51;103237.81;;;-3.98;89.80
72157;BME280;60035;52.122;5.406;2023-03-01T06:30:20;103236.72;;;-4.02;90.15
72157;BME280;60035;52.122;5.406;2023-03-01T06:32:47;103237.94;;;-4.08;90.46
72157;BME280;60035;52.122;5.406;2023-03-01T06:35:14;103243.69;;;-4.09;90.17
72157;BME280;60035;52.122;5.406;2023-03-01T06:37:44;103236.28;;;-4.08;90.84
72157;BME280;60035;52.122;5.406;2023-03-01T06:40:12;103243.03;;;-4.07;90.93
72157;BME280;60035;52.122;5.406;2023-03-01T06:42:41;103244.69;;;-4.07;90.74
72157;BME280;60035;52.122;5.406;2023-03-01T06:45:09;103241.63;;;-4.03;90.24
72157;BME280;60035;52.122;5.406;2023-03-01T06:47:35;103240.31;;;-3.98;90.33
72157;BME280;60035;52.122;5.406;2023-03-01T06:50:02;103245.63;;;-3.93;90.68
72157;BME280;60035;52.122;5.406;2023-03-01T06:52:29;103242.56;;;-3.89;90.20
72157;BME280;60035;52.122;5.406;2023-03-01T06:54:56;103235.16;;;-3.88;90.68
72157;BME280;60035;52.122;5.406;2023-03-01T06:57:23;103245.69;;;-3.80;90.81
72157;BME280;60035;52.122;5.406;2023-03-01T06:59:50;103239.47;;;-3.73;90.35
72157;BME280;60035;52.122;5.406;2023-03-01T07:02:16;103237.97;;;-3.71;90.64
72157;BME280;60035;52.122;5.406;2023-03-01T07:04:43;103238.16;;;-3.68;90.39
72157;BME280;60035;52.122;5.406;2023-03-01T07:07:10;103242.59;;;-3.64;90.07
72157;BME280;60035;52.122;5.406;2023-03-01T07:09:36;103238.38;;;-3.65;90.14
72157;BME280;60035;52.122;5.406;2023-03-01T07:12:03;103233.56;;;-3.62;89.61
72157;BME280;60035;52.122;5.406;2023-03-01T07:14:30;103243.47;;;-3.52;89.44
72157;BME280;60035;52.122;5.406;2023-03-01T07:16:56;103237.31;;;-3.43;89.45
72157;BME280;60035;52.122;5.406;2023-03-01T07:19:23;103240.25;;;-3.37;89.29
72157;BME280;60035;52.122;5.406;2023-03-01T07:21:49;103235.06;;;-3.27;89.13
72157;BME280;60035;52.122;5.406;2023-03-01T07:24:16;103238.97;;;-3.19;89.59
72157;BME280;60035;52.122;5.406;2023-03-01T07:26:42;103233.66;;;-3.10;89.45
72157;BME280;60035;52.122;5.406;2023-03-01T07:29:10;103244.97;;;-3.03;89.04
72157;BME280;60035;52.122;5.406;2023-03-01T07:31:36;103247.59;;;-3.02;89.99
72157;BME280;60035;52.122;5.406;2023-03-01T07:34:04;103249.44;;;-2.99;90.08
72157;BME280;60035;52.122;5.406;2023-03-01T07:36:31;103245.78;;;-2.91;90.42
72157;BME280;60035;52.122;5.406;2023-03-01T07:38:58;103247.13;;;-2.82;90.17
72157;BME280;60035;52.122;5.406;2023-03-01T07:41:24;103248.91;;;-2.68;90.02
72157;BME280;60035;52.122;5.406;2023-03-01T07:43:51;103249.47;;;-2.59;89.89
72157;BME280;60035;52.122;5.406;2023-03-01T07:46:17;103252.75;;;-2.46;90.24
72157;BME280;60035;52.122;5.406;2023-03-01T07:48:45;103260.19;;;-2.35;90.14
72157;BME280;60035;52.122;5.406;2023-03-01T07:51:12;103257.81;;;-2.20;90.48
72157;BME280;60035;52.122;5.406;2023-03-01T07:53:40;103256.13;;;-2.06;90.91
72157;BME280;60035;52.122;5.406;2023-03-01T07:56:11;103249.34;;;-1.93;90.72
72157;BME280;60035;52.122;5.406;2023-03-01T07:58:41;103256.88;;;-1.80;91.02
72157;BME280;60035;52.122;5.406;2023-03-01T08:01:11;103253.44;;;-1.67;90.90
72157;BME280;60035;52.122;5.406;2023-03-01T08:03:39;103250.03;;;-1.54;90.95
72157;BME280;60035;52.122;5.406;2023-03-01T08:06:08;103250.84;;;-1.40;91.29
72157;BME280;60035;52.122;5.406;2023-03-01T08:08:35;103254.84;;;-1.29;91.18
72157;BME280;60035;52.122;5.406;2023-03-01T08:11:04;103252.09;;;-1.19;90.92
72157;BME280;60035;52.122;5.406;2023-03-01T08:13:31;103250.28;;;-1.06;91.00
72157;BME280;60035;52.122;5.406;2023-03-01T08:16:05;103243.47;;;-0.94;90.84
72157;BME280;60035;52.122;5.406;2023-03-01T08:18:32;103248.41;;;-0.80;91.02
72157;BME280;60035;52.122;5.406;2023-03-01T08:21:08;103247.53;;;-0.66;90.73
72157;BME280;60035;52.122;5.406;2023-03-01T08:23:35;103250.81;;;-0.52;90.41
72157;BME280;60035;52.122;5.406;2023-03-01T08:26:11;103235.59;;;-0.39;90.15
72157;BME280;60035;52.122;5.406;2023-03-01T08:28:39;103242.16;;;-0.26;89.52
72157;BME280;60035;52.122;5.406;2023-03-01T08:31:17;103237.06;;;-0.11;89.24
72157;BME280;60035;52.122;5.406;2023-03-01T08:33:45;103235.31;;;0.03;88.84
72157;BME280;60035;52.122;5.406;2023-03-01T08:36:17;103232.56;;;0.15;88.34
72157;BME280;60035;52.122;5.406;2023-03-01T08:38:44;103239.19;;;0.29;87.52
72157;BME280;60035;52.122;5.406;2023-03-01T08:41:10;103227.28;;;0.43;87.01
72157;BME280;60035;52.122;5.406;2023-03-01T08:43:37;103232.88;;;0.54;86.32
72157;BME280;60035;52.122;5.406;2023-03-01T08:46:03;103226.03;;;0.68;85.68
72157;BME280;60035;52.122;5.406;2023-03-01T08:48:30;103224.03;;;0.79;85.00
72157;BME280;60035;52.122;5.406;2023-03-01T08:50:57;103217.94;;;0.92;84.53
72157;BME280;60035;52.122;5.406;2023-03-01T08:53:24;103215.16;;;1.04;84.08
72157;BME280;60035;52.122;5.406;2023-03-01T08:55:50;103217.41;;;1.15;83.45
72157;BME280;60035;52.122;5.406;2023-03-01T08:58:17;103206.97;;;1.26;82.57
72157;BME280;60035;52.122;5.406;2023-03-01T09:00:43;103205.72;;;1.36;82.23
72157;BME280;60035;52.122;5.406;2023-03-01T09:03:10;103205.44;;;1.47;81.51
72157;BME280;60035;52.122;5.406;2023-03-01T09:05:37;103205.13;;;1.59;81.41
72157;BME280;60035;52.122;5.406;2023-03-01T09:08:04;103202.38;;;1.73;80.87
72157;BME280;60035;52.122;5.406;2023-03-01T09:10:30;103196.16;;;1.84;80.20
72157;BME280;60035;52.122;5.406;2023-03-01T09:12:57;103191.50;;;1.93;79.62
72157;BME280;60035;52.122;5.406;2023-03-01T09:15:24;103191.25;;;2.07;78.82
72157;BME280;60035;52.122;5.406;2023-03-01T09:17:50;103193.41;;;2.17;77.94
72157;BME280;60035;52.122;5.406;2023-03-01T09:20:18;103188.00;;;2.29;77.35
72157;BME280;60035;52.122;5.406;2023-03-01T09:22:44;103189.31;;;2.40;77.21
72157;BME280;60035;52.122;5.406;2023-03-01T09:25:11;103174.72;;;2.54;76.87
72157;BME280;60035;52.122;5.406;2023-03-01T09:27:37;103175.16;;;2.65;76.33
72157;BME280;60035;52.122;5.406;2023-03-01T09:30:04;103169.69;;;2.75;76.35
72157;BME280;60035;52.122;5.406;2023-03-01T09:32:31;103168.38;;;2.85;75.03
72157;BME280;60035;52.122;5.406;2023-03-01T09:34:58;103167.22;;;2.98;74.56
72157;BME280;60035;52.122;5.406;2023-03-01T09:37:27;103166.59;;;3.04;74.23
72157;BME280;60035;52.122;5.406;2023-03-01T09:39:53;103161.88;;;3.13;74.00
72157;BME280;60035;52.122;5.406;2023-03-01T09:42:20;103155.38;;;3.20;73.05
72157;BME280;60035;52.122;5.406;2023-03-01T09:44:57;103155.69;;;3.27;72.47
72157;BME280;60035;52.122;5.406;2023-03-01T09:47:31;103160.31;;;3.38;72.21
72157;BME280;60035;52.122;5.406;2023-03-01T09:50:09;103154.66;;;3.45;71.53
72157;BME280;60035;52.122;5.406;2023-03-01T09:52:48;103144.81;;;3.53;70.95
72157;BME280;60035;52.122;5.406;2023-03-01T09:55:31;103152.81;;;3.63;70.18
72157;BME280;60035;52.122;5.406;2023-03-01T10:00:47;103149.28;;;3.82;69.15
72157;BME280;60035;52.122;5.406;2023-03-01T10:03:26;103152.28;;;3.96;68.80
72157;BME280;60035;52.122;5.406;2023-03-01T10:06:02;103150.88;;;4.05;67.27
72157;BME280;60035;52.122;5.406;2023-03-01T10:08:41;103147.72;;;4.10;66.29
72157;BME280;60035;52.122;5.406;2023-03-01T10:11:19;103153.91;;;4.19;65.55
72157;BME280;60035;52.122;5.406;2023-03-01T10:13:55;103145.81;;;4.29;65.55
72157;BME280;60035;52.122;5.406;2023-03-01T10:16:37;103145.47;;;4.44;64.85
72157;BME280;60035;52.122;5.406;2023-03-01T10:19:14;103147.63;;;4.59;64.80
72157;BME280;60035;52.122;5.406;2023-03-01T10:21:45;103152.00;;;4.63;64.13
72157;BME280;60035;52.122;5.406;2023-03-01T10:24:14;103142.78;;;4.65;63.10
72157;BME280;60035;52.122;5.406;2023-03-01T10:26:54;103135.38;;;4.71;63.24
72157;BME280;60035;52.122;5.406;2023-03-01T10:29:31;103135.94;;;4.90;62.96
72157;BME280;60035;52.122;5.406;2023-03-01T10:32:03;103135.25;;;4.95;62.74
72157;BME280;60035;52.122;5.406;2023-03-01T10:34:33;103132.97;;;5.03;62.48
72157;BME280;60035;52.122;5.406;2023-03-01T10:37:09;103133.41;;;5.18;62.33
72157;BME280;60035;52.122;5.406;2023-03-01T10:39:36;103125.22;;;5.27;62.30
72157;BME280;60035;52.122;5.406;2023-03-01T10:42:05;103126.28;;;5.36;61.73
72157;BME280;60035;52.122;5.406;2023-03-01T10:44:41;103117.25;;;5.44;61.09
72157;BME280;60035;52.122;5.406;2023-03-01T10:47:21;103115.16;;;5.61;60.21
72157;BME280;60035;52.122;5.406;2023-03-01T10:50:00;103102.66;;;5.68;59.06
72157;BME280;60035;52.122;5.406;2023-03-01T10:52:36;103100.28;;;5.75;57.82
72157;BME280;60035;52.122;5.406;2023-03-01T10:57:38;103096.31;;;5.84;56.90
72157;BME280;60035;52.122;5.406;2023-03-01T11:02:47;103081.72;;;6.09;56.73
72157;BME280;60035;52.122;5.406;2023-03-01T11:07:53;103075.31;;;6.24;54.77
72157;BME280;60035;52.122;5.406;2023-03-01T11:10:27;103068.72;;;6.32;55.46
72157;BME280;60035;52.122;5.406;2023-03-01T11:13:16;103078.34;;;6.44;54.81
72157;BME280;60035;52.122;5.406;2023-03-01T11:16:00;103063.25;;;6.52;55.10
72157;BME280;60035;52.122;5.406;2023-03-01T11:18:30;103068.34;;;6.52;53.94
72157;BME280;60035;52.122;5.406;2023-03-01T11:21:12;103061.81;;;6.63;53.59
72157;BME280;60035;52.122;5.406;2023-03-01T11:23:39;103048.16;;;6.59;53.39
72157;BME280;60035;52.122;5.406;2023-03-01T11:26:08;103046.56;;;6.63;52.61
72157;BME280;60035;52.122;5.406;2023-03-01T11:28:40;103044.88;;;6.65;52.30
72157;BME280;60035;52.122;5.406;2023-03-01T11:31:10;103045.16;;;6.77;52.23
72157;BME280;60035;52.122;5.406;2023-03-01T11:33:46;103046.41;;;6.95;51.86
72157;BME280;60035;52.122;5.406;2023-03-01T11:36:35;103044.63;;;6.92;51.83
72157;BME280;60035;52.122;5.406;2023-03-01T11:39:17;103041.47;;;7.03;50.79
72157;BME280;60035;52.122;5.406;2023-03-01T11:41:48;103038.16;;;7.07;51.15
72157;BME280;60035;52.122;5.406;2023-03-01T11:44:24;103039.16;;;7.15;49.57
72157;BME280;60035;52.122;5.406;2023-03-01T11:47:09;103038.16;;;7.07;48.32
72157;BME280;60035;52.122;5.406;2023-03-01T11:55:01;103039.56;;;7.37;49.27
72157;BME280;60035;52.122;5.406;2023-03-01T12:06:24;103019.88;;;7.74;47.11
72157;BME280;60035;52.122;5.406;2023-03-01T12:12:17;103016.50;;;7.75;47.34
72157;BME280;60035;52.122;5.406;2023-03-01T12:14:55;103020.13;;;7.88;47.37
72157;BME280;60035;52.122;5.406;2023-03-01T12:17:48;103019.63;;;8.09;47.65
72157;BME280;60035;52.122;5.406;2023-03-01T12:20:34;103013.88;;;8.22;46.24
72157;BME280;60035;52.122;5.406;2023-03-01T12:28:35;103013.69;;;8.10;46.10
72157;BME280;60035;52.122;5.406;2023-03-01T12:43:08;102997.34;;;8.55;44.49
72157;BME280;60035;52.122;5.406;2023-03-01T12:46:05;102983.81;;;8.62;44.24
72157;BME280;60035;52.122;5.406;2023-03-01T12:48:55;102989.13;;;8.76;44.95
72157;BME280;60035;52.122;5.406;2023-03-01T12:51:26;102991.81;;;8.89;44.14
72157;BME280;60035;52.122;5.406;2023-03-01T12:53:57;102981.38;;;8.72;43.51
72157;BME280;60035;52.122;5.406;2023-03-01T12:56:30;102973.59;;;8.62;43.27
72157;BME280;60035;52.122;5.406;2023-03-01T13:01:51;102963.28;;;8.53;44.08
72157;BME280;60035;52.122;5.406;2023-03-01T13:07:28;102954.38;;;8.91;44.38
72157;BME280;60035;52.122;5.406;2023-03-01T13:17:53;102940.28;;;9.27;42.84
72157;BME280;60035;52.122;5.406;2023-03-01T13:23:11;102930.63;;;8.99;42.79
72157;BME280;60035;52.122;5.406;2023-03-01T13:26:33;102922.00;;;8.90;42.36
72157;BME280;60035;52.122;5.406;2023-03-01T13:28:58;102922.22;;;9.08;42.76
72157;BME280;60035;52.122;5.406;2023-03-01T13:31:54;102920.69;;;9.27;42.07
72157;BME280;60035;52.122;5.406;2023-03-01T13:34:49;102919.09;;;9.40;42.91
72157;BME280;60035;52.122;5.406;2023-03-01T13:37:23;102903.81;;;9.43;42.01
72157;BME280;60035;52.122;5.406;2023-03-01T13:39:52;102907.22;;;9.45;42.50
72157;BME280;60035;52.122;5.406;2023-03-01T13:42:46;102909.53;;;9.17;41.44
72157;BME280;60035;52.122;5.406;2023-03-01T13:45:38;102905.09;;;9.01;41.81
72157;BME280;60035;52.122;5.406;2023-03-01T13:48:11;102894.97;;;9.10;42.00
72157;BME280;60035;52.122;5.406;2023-03-01T13:50:51;102903.47;;;9.06;41.72
72157;BME280;60035;52.122;5.406;2023-03-01T13:53:22;102900.91;;;9.06;41.65
72157;BME280;60035;52.122;5.406;2023-03-01T13:55:54;102892.56;;;9.26;41.69
72157;BME280;60035;52.122;5.406;2023-03-01T13:58:26;102893.47;;;9.32;41.51
72157;BME280;60035;52.122;5.406;2023-03-01T14:01:05;102884.22;;;9.47;41.49
72157;BME280;60035;52.122;5.406;2023-03-01T14:03:39;102873.28;;;9.66;41.85
72157;BME280;60035;52.122;5.406;2023-03-01T14:06:09;102868.28;;;9.80;41.53
72157;BME280;60035;52.122;5.406;2023-03-01T14:08:44;102864.16;;;10.09;41.42
72157;BME280;60035;52.122;5.406;2023-03-01T14:11:33;102864.31;;;10.35;40.29
72157;BME280;60035;52.122;5.406;2023-03-01T14:17:39;102852.53;;;10.93;39.97
72157;BME280;60035;52.122;5.406;2023-03-01T14:20:02;102842.31;;;11.21;39.43
72157;BME280;60035;52.122;5.406;2023-03-01T14:22:34;102834.56;;;11.45;38.32
72157;BME280;60035;52.122;5.406;2023-03-01T14:25:16;102836.28;;;11.45;37.04
72157;BME280;60035;52.122;5.406;2023-03-01T14:27:43;102828.56;;;11.49;38.09
72157;BME280;60035;52.122;5.406;2023-03-01T14:30:23;102826.88;;;11.47;37.13